createdAt,value
2018-01-28T00:01:34.327Z,4.20
2018-01-28T00:04:00.661Z,4.20
2018-01-28T00:06:26.996Z,4.20
2018-01-28T00:08:53.227Z,4.20
2018-01-28T00:11:19.571Z,4.20
2018-01-28T00:13:45.890Z,4.20
2018-01-28T00:16:12.176Z,4.10
2018-01-28T00:18:38.477Z,4.10
2018-01-28T00:21:04.729Z,4.10
2018-01-28T00:23:31.066Z,4.10
2018-01-28T00:25:57.291Z,4.10
2018-01-28T00:28:23.557Z,4.20
2018-01-28T00:30:49.802Z,4.20
2018-01-28T00:33:16.052Z,4.20
2018-01-28T00:35:42.327Z,4.20
2018-01-28T00:38:08.603Z,4.20
2018-01-28T00:40:34.856Z,4.20
2018-01-28T00:43:01.113Z,4.20
2018-01-28T00:45:27.372Z,4.20
2018-01-28T00:47:53.599Z,4.20
2018-01-28T00:50:19.858Z,4.20
2018-01-28T00:52:46.120Z,4.20
2018-01-28T00:55:13.113Z,4.20
2018-01-28T00:57:39.371Z,4.20
2018-01-28T01:00:05.643Z,4.20
2018-01-28T01:02:31.903Z,4.20
2018-01-28T01:04:58.859Z,4.20
2018-01-28T01:07:25.883Z,4.20
2018-01-28T01:09:52.131Z,4.20
2018-01-28T01:12:18.394Z,4.20
2018-01-28T01:14:44.671Z,4.20
2018-01-28T01:17:10.919Z,4.20
2018-01-28T01:19:37.147Z,4.20
2018-01-28T01:22:03.653Z,4.20
2018-01-28T01:24:29.889Z,4.20
2018-01-28T01:26:56.148Z,4.20
2018-01-28T01:29:22.437Z,4.20
2018-01-28T01:31:48.671Z,4.20
2018-01-28T01:34:14.964Z,4.20
2018-01-28T01:36:41.202Z,4.30
2018-01-28T01:39:07.479Z,4.30
2018-01-28T01:41:33.723Z,4.30
2018-01-28T01:43:59.975Z,4.30
2018-01-28T01:46:26.528Z,4.30
2018-01-28T01:48:52.775Z,4.30
2018-01-28T01:51:18.991Z,4.30
2018-01-28T01:53:45.247Z,4.30
2018-01-28T01:56:11.484Z,4.40
2018-01-28T01:58:37.733Z,4.40
2018-01-28T02:01:04.000Z,4.40
2018-01-28T02:03:30.248Z,4.40
2018-01-28T02:05:56.513Z,4.40
2018-01-28T02:08:23.510Z,4.50
2018-01-28T02:10:49.771Z,4.50
2018-01-28T02:13:16.050Z,4.50
2018-01-28T02:15:43.053Z,4.50
2018-01-28T02:18:09.294Z,4.60
2018-01-28T02:20:35.811Z,4.60
2018-01-28T02:23:02.860Z,4.70
2018-01-28T02:25:29.837Z,4.70
2018-01-28T02:27:56.123Z,4.70
2018-01-28T02:30:22.367Z,4.70
2018-01-28T02:32:48.616Z,4.80
2018-01-28T02:35:14.841Z,4.80
2018-01-28T02:37:41.139Z,4.80
2018-01-28T02:40:07.377Z,4.90
2018-01-28T02:42:33.647Z,4.90
2018-01-28T02:44:59.907Z,4.90
2018-01-28T02:47:26.147Z,4.90
2018-01-28T02:49:52.680Z,5.00
2018-01-28T02:52:18.948Z,5.00
2018-01-28T02:54:45.186Z,5.00
2018-01-28T02:57:11.414Z,5.00
2018-01-28T02:59:37.646Z,5.00
2018-01-28T03:02:04.221Z,5.00
2018-01-28T03:04:30.457Z,5.00
2018-01-28T03:06:56.719Z,5.00
2018-01-28T03:09:23.713Z,5.00
2018-01-28T03:11:49.953Z,5.00
2018-01-28T03:14:16.233Z,5.00
2018-01-28T03:16:42.474Z,5.00
2018-01-28T03:19:08.690Z,5.00
2018-01-28T03:21:34.941Z,5.00
2018-01-28T03:24:01.207Z,5.00
2018-01-28T03:26:27.459Z,4.90
2018-01-28T03:28:53.686Z,5.00
2018-01-28T03:31:20.042Z,5.00
2018-01-28T03:33:46.283Z,5.00
2018-01-28T03:36:12.558Z,4.90
2018-01-28T03:38:38.832Z,4.90
2018-01-28T03:41:05.069Z,4.90
2018-01-28T03:43:31.324Z,4.90
2018-01-28T03:45:57.604Z,4.90
2018-01-28T03:48:24.627Z,4.90
2018-01-28T03:50:51.195Z,4.90
2018-01-28T03:53:17.515Z,4.90
2018-01-28T03:55:43.748Z,5.00
2018-01-28T03:58:16.918Z,5.00
2018-01-28T04:00:43.163Z,5.00
2018-01-28T04:03:09.436Z,5.00
2018-01-28T04:05:35.721Z,5.00
2018-01-28T04:08:02.742Z,5.00
2018-01-28T04:10:28.990Z,5.00
2018-01-28T04:12:55.273Z,5.00
2018-01-28T04:15:21.488Z,5.00
2018-01-28T04:17:47.739Z,5.00
2018-01-28T04:20:14.747Z,5.00
2018-01-28T04:22:40.975Z,4.90
2018-01-28T04:25:07.283Z,5.00
2018-01-28T04:27:34.279Z,5.00
2018-01-28T04:30:00.548Z,5.00
2018-01-28T04:32:26.817Z,5.40
2018-01-28T04:34:54.075Z,6.10
2018-01-28T04:37:20.316Z,6.10
2018-01-28T04:39:46.566Z,6.30
2018-01-28T04:42:13.580Z,6.50
2018-01-28T04:44:39.818Z,6.50
2018-01-28T04:47:06.411Z,6.60
2018-01-28T04:49:33.394Z,7.00
2018-01-28T04:51:59.632Z,6.90
2018-01-28T04:54:25.880Z,7.20
2018-01-28T04:56:52.118Z,7.40
2018-01-28T04:59:19.447Z,7.60
2018-01-28T05:01:50.339Z,8.00
2018-01-28T05:04:16.606Z,8.00
2018-01-28T05:06:42.890Z,8.20
2018-01-28T05:09:09.947Z,8.00
2018-01-28T05:11:37.000Z,8.10
2018-01-28T05:14:04.041Z,8.00
2018-01-28T05:16:30.292Z,8.00
2018-01-28T05:18:56.561Z,7.60
2018-01-28T05:21:22.813Z,7.10
2018-01-28T05:23:49.148Z,6.70
2018-01-28T05:26:15.390Z,6.40
2018-01-28T05:28:41.663Z,6.10
2018-01-28T05:31:07.888Z,5.90
2018-01-28T05:33:34.122Z,5.80
2018-01-28T05:36:00.346Z,5.70
2018-01-28T05:38:26.589Z,5.60
2018-01-28T05:40:52.885Z,5.50
2018-01-28T05:43:19.147Z,5.40
2018-01-28T05:45:45.357Z,5.40
2018-01-28T05:48:11.618Z,5.40
2018-01-28T05:50:37.857Z,5.30
2018-01-28T05:53:04.093Z,5.30
2018-01-28T05:55:30.363Z,5.30
2018-01-28T05:57:56.624Z,5.20
2018-01-28T06:00:22.882Z,5.20
2018-01-28T06:02:49.171Z,5.20
2018-01-28T06:05:15.445Z,5.20
2018-01-28T06:07:41.673Z,5.10
2018-01-28T06:10:08.650Z,5.10
2018-01-28T06:12:34.950Z,5.10
2018-01-28T06:15:01.204Z,5.10
2018-01-28T06:17:28.203Z,5.00
2018-01-28T06:19:54.457Z,5.00
2018-01-28T06:22:20.705Z,5.10
2018-01-28T06:24:46.956Z,5.10
2018-01-28T06:27:13.215Z,5.10
2018-01-28T06:29:39.496Z,5.10
2018-01-28T06:32:05.773Z,5.10
2018-01-28T06:34:32.030Z,5.10
2018-01-28T06:36:58.268Z,5.10
2018-01-28T06:39:24.558Z,5.10
2018-01-28T06:41:50.817Z,5.10
2018-01-28T06:44:17.068Z,5.10
2018-01-28T06:46:44.028Z,5.20
2018-01-28T06:49:10.301Z,5.20
2018-01-28T06:51:36.574Z,5.20
2018-01-28T06:54:02.836Z,5.20
2018-01-28T06:56:29.092Z,5.20
2018-01-28T06:58:55.350Z,5.20
2018-01-28T07:01:21.591Z,5.20
2018-01-28T07:03:47.881Z,5.20
2018-01-28T07:06:14.140Z,5.20
2018-01-28T07:08:40.432Z,5.20
2018-01-28T07:11:07.416Z,5.20
2018-01-28T07:13:33.713Z,5.20
2018-01-28T07:15:59.965Z,5.30
2018-01-28T07:18:26.205Z,5.30
2018-01-28T07:20:53.210Z,5.30
2018-01-28T07:23:19.449Z,5.30
2018-01-28T07:25:45.732Z,5.30
2018-01-28T07:28:11.978Z,5.40
2018-01-28T07:30:38.233Z,5.40
2018-01-28T07:33:04.493Z,5.50
2018-01-28T07:35:30.741Z,5.50
2018-01-28T07:37:57.013Z,5.50
2018-01-28T07:40:24.053Z,5.60
2018-01-28T07:42:50.340Z,5.60
2018-01-28T07:45:17.335Z,5.70
2018-01-28T07:47:44.339Z,5.80
2018-01-28T07:50:10.639Z,5.80
2018-01-28T07:52:36.879Z,5.90
2018-01-28T07:55:03.157Z,6.00
2018-01-28T07:57:29.445Z,6.10
2018-01-28T07:59:56.462Z,6.10
2018-01-28T08:02:22.663Z,6.00
2018-01-28T08:04:48.895Z,6.10
2018-01-28T08:07:15.919Z,6.10
2018-01-28T08:09:44.948Z,6.10
2018-01-28T08:12:13.867Z,6.10
2018-01-28T08:14:40.153Z,6.10
2018-01-28T08:17:07.185Z,6.20
2018-01-28T08:19:33.455Z,6.10
2018-01-28T08:21:59.774Z,6.20
2018-01-28T08:24:26.098Z,6.30
2018-01-28T08:26:56.313Z,6.30
2018-01-28T08:29:23.337Z,6.30
2018-01-28T08:31:49.596Z,6.30
2018-01-28T08:34:15.892Z,6.50
2018-01-28T08:36:42.212Z,6.90
2018-01-28T08:39:08.489Z,7.30
2018-01-28T08:41:34.735Z,7.50
2018-01-28T08:44:01.019Z,7.40
2018-01-28T08:46:28.040Z,7.20
2018-01-28T08:48:54.316Z,7.20
2018-01-28T08:51:21.291Z,7.10
2018-01-28T08:53:48.321Z,7.10
2018-01-28T08:56:14.569Z,7.10
2018-01-28T08:58:40.861Z,7.10
2018-01-28T09:01:07.124Z,7.10
2018-01-28T09:03:33.404Z,7.10
2018-01-28T09:05:59.709Z,7.10
2018-01-28T09:08:25.981Z,7.10
2018-01-28T09:10:53.012Z,7.20
2018-01-28T09:13:19.543Z,7.20
2018-01-28T09:15:45.827Z,7.30
2018-01-28T09:18:12.878Z,7.40
2018-01-28T09:20:39.905Z,7.50
2018-01-28T09:23:06.257Z,7.50
2018-01-28T09:25:32.571Z,7.50
2018-01-28T09:27:58.854Z,7.60
2018-01-28T09:30:25.105Z,7.60
2018-01-28T09:32:52.105Z,7.80
2018-01-28T09:35:18.355Z,7.70
2018-01-28T09:37:44.602Z,7.80
2018-01-28T09:40:10.936Z,7.90
2018-01-28T09:42:37.181Z,7.90
2018-01-28T09:45:03.474Z,8.00
2018-01-28T09:47:29.742Z,8.00
2018-01-28T09:49:56.011Z,8.00
2018-01-28T09:52:22.298Z,8.00
2018-01-28T09:54:48.577Z,8.10
2018-01-28T09:57:15.597Z,8.10
2018-01-28T09:59:41.867Z,8.20
2018-01-28T10:02:08.165Z,8.20
2018-01-28T10:04:34.429Z,8.40
2018-01-28T10:07:01.441Z,8.60
2018-01-28T10:09:27.708Z,8.60
2018-01-28T10:11:53.978Z,8.60
2018-01-28T10:14:20.997Z,8.70
2018-01-28T10:16:47.265Z,8.70
2018-01-28T10:19:13.520Z,8.80
2018-01-28T10:21:40.562Z,8.80
2018-01-28T10:24:07.568Z,9.00
2018-01-28T10:26:34.560Z,9.50
2018-01-28T10:29:00.826Z,9.40
2018-01-28T10:31:27.123Z,9.70
2018-01-28T10:33:53.443Z,9.80
2018-01-28T10:36:19.690Z,9.90
2018-01-28T10:38:45.976Z,10.10
2018-01-28T10:41:12.279Z,10.10
2018-01-28T10:43:38.626Z,10.10
2018-01-28T10:46:04.928Z,10.10
2018-01-28T10:48:32.776Z,9.90
2018-01-28T10:50:59.063Z,9.90
2018-01-28T10:53:25.371Z,9.80
2018-01-28T10:55:51.646Z,9.70
2018-01-28T10:58:17.931Z,9.60
2018-01-28T11:00:44.232Z,9.60
2018-01-28T11:03:10.504Z,9.50
2018-01-28T11:05:36.769Z,9.50
2018-01-28T11:08:03.042Z,9.40
2018-01-28T11:10:29.340Z,9.30
2018-01-28T11:12:55.768Z,9.20
2018-01-28T11:15:22.055Z,9.20
2018-01-28T11:17:48.347Z,9.20
2018-01-28T11:20:14.661Z,9.30
2018-01-28T11:22:40.971Z,9.40
2018-01-28T11:25:07.357Z,9.50
2018-01-28T11:27:33.716Z,9.60
2018-01-28T11:30:00.013Z,9.60
2018-01-28T11:32:27.021Z,9.70
2018-01-28T11:34:53.366Z,9.70
2018-01-28T11:37:19.595Z,9.70
2018-01-28T11:39:45.900Z,9.70
2018-01-28T11:42:13.348Z,9.70
2018-01-28T11:44:39.771Z,9.70
2018-01-28T11:47:06.106Z,9.70
2018-01-28T11:49:32.415Z,9.70
2018-01-28T11:51:58.719Z,9.70
2018-01-28T11:54:25.030Z,9.70
2018-01-28T11:56:52.046Z,9.80
2018-01-28T11:59:18.358Z,9.80
2018-01-28T12:01:44.660Z,9.80
2018-01-28T12:04:10.940Z,9.80
2018-01-28T12:06:37.240Z,9.80
2018-01-28T12:09:03.610Z,9.80
2018-01-28T12:11:29.880Z,9.80
2018-01-28T12:13:56.931Z,9.80
2018-01-28T12:16:23.225Z,9.80
2018-01-28T12:18:49.531Z,9.90
2018-01-28T12:21:16.588Z,10.00
2018-01-28T12:23:43.708Z,10.00
2018-01-28T12:26:10.002Z,10.00
2018-01-28T12:28:37.086Z,10.00
2018-01-28T12:31:03.429Z,10.00
2018-01-28T12:33:29.751Z,10.00
2018-01-28T12:35:56.028Z,10.10
2018-01-28T12:38:22.429Z,10.10
2018-01-28T12:40:49.464Z,10.20
2018-01-28T12:43:15.720Z,10.10
2018-01-28T12:45:42.764Z,10.30
2018-01-28T12:48:09.050Z,10.20
2018-01-28T12:50:35.353Z,10.30
2018-01-28T12:53:01.741Z,10.40
2018-01-28T12:55:28.111Z,10.40
2018-01-28T12:57:54.487Z,10.50
2018-01-28T13:00:20.893Z,10.50
2018-01-28T13:02:47.193Z,10.60
2018-01-28T13:05:14.241Z,10.90
2018-01-28T13:07:41.269Z,11.10
2018-01-28T13:10:07.643Z,11.00
2018-01-28T13:12:34.762Z,11.40
2018-01-28T13:15:01.104Z,11.30
2018-01-28T13:17:27.463Z,11.50
2018-01-28T13:19:53.739Z,11.50
2018-01-28T13:22:20.786Z,11.50
2018-01-28T13:24:47.168Z,11.40
2018-01-28T13:27:13.498Z,11.40
2018-01-28T13:29:40.546Z,11.30
2018-01-28T13:32:07.568Z,11.30
2018-01-28T13:34:33.907Z,11.20
2018-01-28T13:37:00.236Z,11.20
2018-01-28T13:39:26.602Z,11.20
2018-01-28T13:41:52.956Z,11.20
2018-01-28T13:44:19.274Z,11.10
2018-01-28T13:46:45.614Z,11.20
2018-01-28T13:49:11.934Z,11.10
2018-01-28T13:51:38.311Z,11.10
2018-01-28T13:54:04.606Z,11.00
2018-01-28T13:56:31.006Z,11.00
2018-01-28T13:58:57.339Z,10.90
2018-01-28T14:01:23.707Z,10.90
2018-01-28T14:03:50.826Z,10.90
2018-01-28T14:06:17.184Z,10.90
2018-01-28T14:08:43.517Z,10.80
2018-01-28T14:11:09.868Z,10.80
2018-01-28T14:13:36.265Z,10.80
2018-01-28T14:16:02.643Z,10.70
2018-01-28T14:18:29.014Z,10.70
2018-01-28T14:20:55.322Z,10.70
2018-01-28T14:23:21.698Z,10.70
2018-01-28T14:25:47.979Z,10.70
2018-01-28T14:28:14.994Z,10.80
2018-01-28T14:30:41.352Z,10.80
2018-01-28T14:33:07.741Z,10.80
2018-01-28T14:35:34.034Z,10.80
2018-01-28T14:38:00.366Z,10.80
2018-01-28T14:40:26.739Z,10.80
2018-01-28T14:42:53.899Z,10.70
2018-01-28T14:45:21.006Z,10.80
2018-01-28T14:47:47.313Z,10.70
2018-01-28T14:50:13.864Z,10.80
2018-01-28T14:52:40.214Z,10.80
2018-01-28T14:55:06.634Z,10.80
2018-01-28T14:57:33.722Z,10.80
2018-01-28T15:00:00.044Z,10.70
2018-01-28T15:02:27.133Z,10.70
2018-01-28T15:04:53.427Z,10.70
2018-01-28T15:07:19.758Z,10.70
2018-01-28T15:09:46.085Z,10.70
2018-01-28T15:12:13.221Z,10.60
2018-01-28T15:14:39.557Z,10.60
2018-01-28T15:17:05.921Z,10.60
2018-01-28T15:19:32.262Z,10.60
2018-01-28T15:21:58.573Z,10.60
2018-01-28T15:24:25.681Z,10.50
2018-01-28T15:26:52.022Z,10.50
2018-01-28T15:29:18.366Z,10.50
2018-01-28T15:31:44.688Z,10.40
2018-01-28T15:34:11.055Z,10.40
2018-01-28T15:36:37.407Z,10.30
2018-01-28T15:39:04.663Z,10.30
2018-01-28T15:41:30.984Z,10.30
2018-01-28T15:43:57.313Z,10.20
2018-01-28T15:46:23.668Z,10.20
2018-01-28T15:48:50.060Z,10.20
2018-01-28T15:51:17.174Z,10.10
2018-01-28T15:53:43.547Z,10.10
2018-01-28T15:56:10.680Z,10.10
2018-01-28T15:58:37.030Z,10.10
2018-01-28T16:01:03.374Z,10.10
2018-01-28T16:03:29.681Z,10.10
2018-01-28T16:05:56.038Z,10.10
2018-01-28T16:08:22.406Z,10.00
2018-01-28T16:10:49.108Z,10.00
2018-01-28T16:13:15.471Z,10.00
2018-01-28T16:15:41.870Z,9.90
2018-01-28T16:18:09.142Z,9.90
2018-01-28T16:20:35.491Z,9.90
2018-01-28T16:23:01.935Z,9.90
2018-01-28T16:25:29.167Z,9.70
2018-01-28T16:27:55.572Z,9.80
2018-01-28T16:30:21.907Z,9.70
2018-01-28T16:32:48.261Z,9.70
2018-01-28T16:35:14.642Z,9.60
2018-01-28T16:37:41.024Z,9.70
2018-01-28T16:40:08.103Z,9.60
2018-01-28T16:42:34.406Z,9.60
2018-01-28T16:45:00.759Z,9.60
2018-01-28T16:47:27.188Z,9.60
2018-01-28T16:49:53.514Z,9.60
2018-01-28T16:52:19.866Z,9.60
2018-01-28T16:54:46.182Z,9.70
2018-01-28T16:57:12.563Z,9.70
2018-01-28T16:59:38.878Z,9.80
2018-01-28T17:02:05.205Z,9.90
2018-01-28T17:04:31.603Z,9.90
2018-01-28T17:06:57.924Z,9.90
2018-01-28T17:09:24.235Z,9.90
2018-01-28T17:11:50.595Z,9.90
2018-01-28T17:14:16.933Z,9.90
2018-01-28T17:16:43.332Z,9.80
2018-01-28T17:19:09.626Z,9.80
2018-01-28T17:21:35.919Z,9.80
2018-01-28T17:24:03.366Z,9.70
2018-01-28T17:26:29.713Z,9.70
2018-01-28T17:28:56.060Z,9.70
2018-01-28T17:31:23.147Z,9.60
2018-01-28T17:33:49.474Z,9.60
2018-01-28T17:36:15.816Z,9.50
2018-01-28T17:38:42.900Z,9.40
2018-01-28T17:41:09.277Z,9.40
2018-01-28T17:43:35.748Z,9.40
2018-01-28T17:46:02.904Z,9.40
2018-01-28T17:48:29.249Z,9.30
2018-01-28T17:50:55.612Z,9.40
2018-01-28T17:53:21.963Z,9.40
2018-01-28T17:55:48.348Z,9.50
2018-01-28T17:58:14.744Z,9.40
2018-01-28T18:00:41.820Z,9.40
2018-01-28T18:03:08.156Z,9.40
2018-01-28T18:05:34.518Z,9.40
2018-01-28T18:08:00.890Z,9.40
2018-01-28T18:10:27.288Z,9.40
2018-01-28T18:12:53.639Z,9.30
2018-01-28T18:15:20.014Z,9.30
2018-01-28T18:17:46.401Z,9.30
2018-01-28T18:20:13.513Z,9.20
2018-01-28T18:22:39.903Z,9.30
2018-01-28T18:25:06.283Z,9.20
2018-01-28T18:27:32.661Z,9.20
2018-01-28T18:29:59.024Z,9.10
2018-01-28T18:32:25.365Z,9.20
2018-01-28T18:34:51.770Z,9.10
2018-01-28T18:37:18.163Z,9.10
2018-01-28T18:39:44.538Z,9.20
2018-01-28T18:42:14.681Z,9.20
2018-01-28T18:44:43.261Z,9.30
2018-01-28T18:47:09.640Z,9.40
2018-01-28T18:49:36.940Z,9.40
2018-01-28T18:52:03.418Z,9.40
2018-01-28T18:54:29.794Z,9.50
2018-01-28T18:56:56.241Z,9.50
2018-01-28T18:59:22.610Z,9.50
2018-01-28T19:01:49.160Z,9.50
2018-01-28T19:04:15.523Z,9.50
2018-01-28T19:06:42.683Z,9.30
2018-01-28T19:09:09.809Z,9.20
2018-01-28T19:11:36.174Z,9.20
2018-01-28T19:14:02.567Z,9.20
2018-01-28T19:16:28.999Z,9.10
2018-01-28T19:18:55.388Z,9.10
2018-01-28T19:21:22.249Z,9.10
2018-01-28T19:23:48.623Z,9.00
2018-01-28T19:26:15.768Z,9.00
2018-01-28T19:28:43.133Z,9.00
2018-01-28T19:31:09.502Z,9.00
2018-01-28T19:33:35.881Z,9.00
2018-01-28T19:36:02.222Z,9.00
2018-01-28T19:38:28.569Z,8.90
2018-01-28T19:40:54.918Z,8.90
2018-01-28T19:43:21.295Z,8.80
2018-01-28T19:45:47.666Z,8.70
2018-01-28T19:48:14.086Z,8.60
2018-01-28T19:50:40.518Z,8.50
2018-01-28T19:53:06.882Z,8.40
2018-01-28T19:55:33.731Z,8.30
2018-01-28T19:58:00.135Z,8.20
2018-01-28T20:00:26.510Z,8.10
2018-01-28T20:02:52.957Z,8.00
2018-01-28T20:05:19.336Z,7.90
2018-01-28T20:07:46.486Z,7.70
2018-01-28T20:10:13.069Z,7.70
2018-01-28T20:12:39.437Z,7.60
2018-01-28T20:15:05.820Z,7.50
2018-01-28T20:17:33.028Z,7.40
2018-01-28T20:19:59.384Z,7.40
2018-01-28T20:22:25.798Z,7.30
2018-01-28T20:24:53.337Z,7.30
2018-01-28T20:27:19.882Z,7.30
2018-01-28T20:29:47.336Z,7.40
2018-01-28T20:32:13.936Z,7.40
2018-01-28T20:34:40.321Z,7.40
2018-01-28T20:37:06.695Z,7.50
2018-01-28T20:39:34.276Z,7.60
2018-01-28T20:42:00.871Z,7.50
2018-01-28T20:44:27.244Z,7.60
2018-01-28T20:46:54.487Z,7.60
2018-01-28T20:49:21.128Z,7.60
2018-01-28T20:51:47.460Z,7.60
2018-01-28T20:54:15.146Z,7.60
2018-01-28T20:56:41.481Z,7.50
2018-01-28T20:59:07.846Z,7.50
2018-01-28T21:01:36.488Z,7.50
2018-01-28T21:04:03.626Z,7.40
2018-01-28T21:06:30.889Z,7.40
2018-01-28T21:08:58.002Z,7.40
2018-01-28T21:11:24.367Z,7.40
2018-01-28T21:13:50.814Z,7.40
2018-01-28T21:16:17.923Z,7.30
2018-01-28T21:18:45.248Z,7.30
2018-01-28T21:21:11.589Z,7.20
2018-01-28T21:23:37.974Z,7.20
2018-01-28T21:26:05.032Z,7.00
2018-01-28T21:28:32.342Z,6.90
2018-01-28T21:30:58.623Z,6.90
2018-01-28T21:33:24.945Z,6.90
2018-01-28T21:35:52.531Z,6.80
2018-01-28T21:38:19.085Z,6.80
2018-01-28T21:40:46.402Z,6.70
2018-01-28T21:43:13.960Z,6.70
2018-01-28T21:45:40.412Z,6.70
2018-01-28T21:48:06.746Z,6.60
2018-01-28T21:50:33.037Z,6.60
2018-01-28T21:52:59.362Z,6.50
2018-01-28T21:55:25.681Z,6.40
2018-01-28T21:57:52.177Z,6.40
2018-01-28T22:00:19.448Z,6.30
2018-01-28T22:02:45.693Z,6.20
2018-01-28T22:05:12.011Z,6.20
2018-01-28T22:07:39.911Z,6.10
2018-01-28T22:10:06.218Z,6.00
2018-01-28T22:12:32.464Z,6.00
2018-01-28T22:14:58.725Z,6.00
2018-01-28T22:17:25.014Z,5.90
2018-01-28T22:19:51.264Z,5.90
2018-01-28T22:22:17.563Z,5.90
2018-01-28T22:24:43.826Z,6.00
2018-01-28T22:27:10.861Z,6.10
2018-01-28T22:29:37.096Z,6.10
2018-01-28T22:32:03.340Z,6.10
2018-01-28T22:34:29.619Z,6.00
2018-01-28T22:36:55.868Z,5.90
2018-01-28T22:39:29.215Z,5.70
2018-01-28T22:41:55.442Z,5.70
2018-01-28T22:44:21.722Z,5.60
2018-01-28T22:46:47.981Z,5.50
2018-01-28T22:49:14.964Z,5.40
2018-01-28T22:51:41.234Z,5.30
2018-01-28T22:54:07.445Z,5.30
2018-01-28T22:56:33.691Z,5.30
2018-01-28T22:58:59.942Z,5.20
2018-01-28T23:01:26.230Z,5.20
2018-01-28T23:03:53.252Z,5.20
2018-01-28T23:06:19.532Z,5.20
2018-01-28T23:08:45.775Z,5.20
2018-01-28T23:11:12.742Z,5.10
2018-01-28T23:13:39.021Z,5.10
2018-01-28T23:16:05.266Z,5.10
2018-01-28T23:18:31.593Z,5.00
2018-01-28T23:20:57.831Z,5.00
2018-01-28T23:23:24.061Z,5.00
2018-01-28T23:25:50.322Z,5.00
2018-01-28T23:28:16.553Z,5.00
2018-01-28T23:30:42.815Z,4.90
2018-01-28T23:33:09.074Z,4.90
2018-01-28T23:35:35.652Z,4.90
2018-01-28T23:38:01.873Z,4.90
2018-01-28T23:40:28.890Z,4.80
2018-01-28T23:42:55.176Z,4.80
2018-01-28T23:45:22.148Z,4.80
2018-01-28T23:47:49.180Z,4.80
2018-01-28T23:50:15.429Z,4.80
2018-01-28T23:52:41.697Z,4.80
2018-01-28T23:55:07.953Z,4.80
2018-01-28T23:57:34.236Z,4.80
